Flight Track Log - Related Links

Times and Time Zones

All times are in EDT time to prevent confusion due to time zone crossing. See the VH-AWE flight status page for this flight to view local times or setup timezone preferences in your user account.

Time Position Orientation Groundspeed Altitude Reporting Facility
EDT Latitude Longitude Course Direction KTS MPH feet Rate Location/Type
Wed 11:08:38 PM -25.3884 152.8506 200° South  Level Aus ATC (Calculated)
Wed 11:09:38 PM -25.4558 152.8218 37° Northeast 1,591 Level Aus ATC (Calculated)
Wed 11:09:38 PM -25.4558 152.8218 37° Northeast 2,206 Level Aus ATC (Calculated)
Wed 11:11:00 PM -25.5091 152.7990 201° Southwest  Level FlightAware Approximate
Wed 11:12:00 PM -25.5482 152.7823 201° Southwest  Level FlightAware Approximate
Wed 11:12:13 PM -25.4515 152.8254 201° Southwest 101 116 5,700  Level Aus ATC (RADAR)
Wed 11:13:08 PM -25.4777 152.8124 204° Southwest 110 127 6,400 780 Climbing Aus ATC (RADAR)
Wed 11:13:53 PM -25.4986 152.8046 199° South 106 122 7,000 675 Climbing Aus ATC (RADAR)
Wed 11:14:28 PM -25.5149 152.7974 202° Southwest 108 124 7,300 635 Climbing Aus ATC (RADAR)
Wed 11:15:18 PM -25.5387 152.7867 202° Southwest 109 125 7,900 382 Climbing Aus ATC (RADAR)
Wed 11:16:18 PM -25.5715 152.7725 201° Southwest 132 152 8,000 39 Climbing Aus ATC (RADAR)
Wed 11:17:52 PM -25.6382 152.7429 202° Southwest 164 189 8,000  Level Aus ATC (RADAR)
Wed 11:18:42 PM -25.6725 152.7280 201° Southwest 160 184 8,000  Level Aus ATC (RADAR)
Wed 11:19:32 PM -25.7075 152.7120 202° Southwest 162 186 8,000  Level Aus ATC (RADAR)
Wed 11:20:03 PM -25.7284 152.7037 200° South 161 185 8,000  Level Aus ATC (RADAR)
Wed 11:20:57 PM -25.7672 152.6871 201° Southwest 163 188 8,000  Level Aus ATC (RADAR)
Wed 11:22:12 PM -25.8202 152.6653 200° South 160 184 8,000  Level Aus ATC (RADAR)
Wed 11:22:47 PM -25.8455 152.6534 203° Southwest 166 191 8,000  Level Aus ATC (RADAR)
Wed 11:23:27 PM -25.8739 152.6419 200° South 164 189 8,000  Level Aus ATC (RADAR)
Wed 11:24:12 PM -25.9056 152.6286 201° Southwest 164 189 8,000  Level Aus ATC (RADAR)
Wed 11:25:12 PM -25.9489 152.6096 202° Southwest 166 191 8,000  Level Aus ATC (RADAR)
Wed 11:26:02 PM -25.9845 152.5945 201° Southwest 165 190 8,000  Level Aus ATC (RADAR)
Wed 11:26:37 PM -26.0099 152.5824 203° Southwest 169 194 8,000  Level Aus ATC (RADAR)
Wed 11:27:26 PM -26.0451 152.5687 199° South 167 192 8,000  Level Aus ATC (RADAR)
Wed 11:28:21 PM -26.0854 152.5496 203° Southwest 174 200 8,000  Level Aus ATC (RADAR)
Wed 11:29:06 PM -26.1174 152.5366 200° South 164 189 8,000  Level Aus ATC (RADAR)
Wed 11:29:41 PM -26.1423 152.5255 202° Southwest 165 190 8,000  Level Aus ATC (RADAR)
Wed 11:30:36 PM -26.1814 152.5090 201° Southwest 162 186 8,000  Level Aus ATC (RADAR)
Wed 11:31:31 PM -26.2211 152.4917 201° Southwest 166 191 8,000  Level Aus ATC (RADAR)
Wed 11:32:31 PM -26.2641 152.4727 202° Southwest 165 190 8,000  Level Aus ATC (RADAR)
Wed 11:33:21 PM -26.2996 152.4574 201° Southwest 164 189 8,000  Level Aus ATC (RADAR)
Wed 11:34:11 PM -26.3348 152.4419 202° Southwest 163 188 8,000  Level Aus ATC (RADAR)
Wed 11:34:46 PM -26.3596 152.4309 202° Southwest 163 188 8,000  Level Aus ATC (RADAR)
Wed 11:35:36 PM -26.3951 152.4154 201° Southwest 166 191 8,000  Level Aus ATC (RADAR)
Wed 11:36:36 PM -26.4375 152.3980 200° South 164 189 8,000  Level Aus ATC (RADAR)
Wed 11:37:30 PM -26.4769 152.3809 201° Southwest 165 190 8,000  Level Aus ATC (RADAR)
Wed 11:38:40 PM -26.5264 152.3585 202° Southwest 164 189 8,000  Level Aus ATC (RADAR)
Wed 11:39:45 PM -26.5714 152.3390 201° Southwest 158 182 8,000  Level Aus ATC (RADAR)
Wed 11:40:30 PM -26.6025 152.3261 200° South 162 186 8,000  Level Aus ATC (RADAR)
Wed 11:41:10 PM -26.6302 152.3135 202° Southwest 160 184 8,000  Level Aus ATC (RADAR)
Wed 11:42:00 PM -26.6652 152.2983 201° Southwest 161 185 8,000  Level Aus ATC (RADAR)
Wed 11:42:50 PM -26.7003 152.2833 201° Southwest 162 186 8,000  Level Aus ATC (RADAR)
Wed 11:43:35 PM -26.7324 152.2691 202° Southwest 164 189 8,000  Level Aus ATC (RADAR)
Wed 11:44:15 PM -26.7611 152.2565 201° Southwest 166 191 8,000  Level Aus ATC (RADAR)
Wed 11:45:00 PM -26.7943 152.2418 202° Southwest 169 194 8,000  Level Aus ATC (RADAR)
Wed 11:46:05 PM -26.8404 152.2216 201° Southwest 165 190 8,000  Level Aus ATC (RADAR)
Wed 11:46:50 PM -26.8725 152.2075 201° Southwest 165 190 8,000  Level Aus ATC (RADAR)
Wed 11:47:24 PM -26.8968 152.1966 202° Southwest 160 184 8,000  Level Aus ATC (RADAR)
Wed 11:48:44 PM -26.9516 152.1700 203° Southwest 159 183 8,000  Level Aus ATC (RADAR)
Wed 11:49:49 PM -26.9861 152.1288 227° Southwest 163 188 8,000  Level Aus ATC (RADAR)
Wed 11:50:24 PM -27.0053 152.1087 223° Southwest 161 185 8,000  Level Aus ATC (RADAR)
Wed 11:50:59 PM -27.0242 152.0894 222° Southwest 159 183 8,000  Level Aus ATC (RADAR)
Wed 11:51:44 PM -27.0486 152.0644 222° Southwest 158 182 8,000  Level Aus ATC (RADAR)
Wed 11:52:14 PM -27.0649 152.0477 222° Southwest 157 181 8,000  Level Aus ATC (RADAR)
Wed 11:53:04 PM -27.0913 152.0199 223° Southwest 156 180 8,000  Level Aus ATC (RADAR)
Wed 11:53:44 PM -27.1133 151.9977 222° Southwest 156 180 8,000  Level Aus ATC (RADAR)
Wed 11:54:39 PM -27.1430 151.9666 223° Southwest 160 184 8,000  Level Aus ATC (RADAR)
Wed 11:55:19 PM -27.1651 151.9442 222° Southwest 159 183 8,000  Level Aus ATC (RADAR)
Wed 11:55:54 PM -27.1846 151.9243 222° Southwest 159 183 8,000  Level Aus ATC (RADAR)
Wed 11:56:44 PM -27.2148 151.8941 222° Southwest 169 194 8,000  Level Aus ATC (RADAR)
Wed 11:57:38 PM -27.2459 151.8622 222° Southwest 162 186 8,000 -121 Level Aus ATC (RADAR)
Wed 11:58:23 PM -27.2716 151.8360 222° Southwest 165 190 7,800 -545 Descending Aus ATC (RADAR)
Wed 11:59:28 PM -27.3127 151.7935 223° Southwest 187 215 7,000 -673 Descending Aus ATC (RADAR)
Thu 12:00:10 AM -27.3393 151.7667 222° Southwest 195 224 6,600 -675 Descending Aus ATC (RADAR)
Thu 12:00:48 AM -27.3665 151.7387 222° Southwest 201 231 6,100 -409 Descending Aus ATC (RADAR)
Thu 12:01:38 AM -27.4056 151.7292 192° South 173 199 6,000 -164 Descending Aus ATC (RADAR)
Thu 12:02:38 AM -27.4498 151.7242 186° South 160 184 5,800 -382 Descending Aus ATC (RADAR)
Thu 12:03:28 AM -27.4708 151.7568 126° Southeast 154 177 5,300 -678 Descending Aus ATC (RADAR)
Thu 12:04:33 AM -27.4873 151.7959 116° Southeast 117 135 4,500 -780 Descending Aus ATC (RADAR)
Thu 12:05:08 AM -27.4950 151.8157 113° Southeast 115 132 4,000 -686 Descending Aus ATC (RADAR)
Thu 12:05:43 AM -27.5047 151.8341 121° Southeast 113 130 3,700 -632 Descending Aus ATC (RADAR)
Thu 12:06:43 AM -27.5171 151.8622 116° Southeast 98 113 3,000 -579 Descending Aus ATC (RADAR)
Thu 12:07:37 AM -27.5262 151.8828 116° Southeast 68 78 2,600 -346 Descending Aus ATC (RADAR)
Thu 12:08:27 AM -27.5346 151.9011 117° Southeast 80 92 2,400 -240 Descending Aus ATC (RADAR)

Login

Don't have an account? Register now (free) for customized features, flight alerts, and more!